CMA-CGM Fort Saint Pierre — FQFM — position and weather

sailwx.info

Track history (hours):
 
Tides and Currents Weather Stations Pressure Air Temp Water Temp Dewpoint Dewpoint Depression Visibility Wind Speed Wind Dir Waves Ship Positions

CMA-CGM Fort Saint Pierre

Last reported at 2016-Dec-05 14:32 UTC. Time now 2016-Dec-05 14:37 UTC.
Position N 51°18' E 004°16'.

Length 197 m; beam 30 m.

Type: Ship (hazmat cat A). MMSI: 226328000.

Date/timePositionNaut miles runAvg speedWind from/ knotsBaromVisibWave heightAir tempDewpointWater temp
2016-Dec-05 14:32N 51°18' E 004°16'0 0.0
2016-Dec-05 13:32N 51°18' E 004°16'0 0.0
2016-Dec-05 12:29N 51°18' E 004°16'0 0.0
2016-Dec-05 11:32N 51°18' E 004°16'0 0.0
2016-Dec-05 10:32N 51°18' E 004°16'0 0.0
2016-Dec-05 09:26N 51°18' E 004°16'0 0.0
2016-Dec-05 08:26N 51°18' E 004°16'0 0.0
2016-Dec-05 07:32N 51°18' E 004°16'0 0.0
2016-Dec-05 06:32N 51°18' E 004°16'0 0.0
2016-Dec-05 05:32N 51°18' E 004°16'0 0.0
2016-Dec-05 04:32N 51°18' E 004°16'4 3.6
2016-Dec-05 03:33N 51°21' E 004°15'1010.4
2016-Dec-05 02:34N 51°26' E 004°00'1111.2
2016-Dec-05 01:34N 51°24' E 003°43'1111.2
2016-Dec-05 00:33N 51°24' E 003°25'1515.3
2016-Dec-04 23:33N 51°25' E 003°00'1716.7
2016-Dec-04 22:33N 51°40' E 003°12'9 8.5
2016-Dec-04 21:33N 51°48' E 003°15'8 7.8
2016-Dec-04 20:34N 51°56' E 003°18'9 9.1
2016-Dec-04 19:33N 52°05' E 003°21'1413.8
2016-Dec-04 18:32N 52°19' E 003°25'1313.7
2016-Dec-04 17:33N 52°32' E 003°28'1414.0
2016-Dec-04 16:33N 52°44' E 003°39'1614.9
2016-Dec-04 15:29N 52°56' E 003°57'1415.0
2016-Dec-04 14:33N 53°05' E 004°14'1716.7
2016-Dec-04 13:33N 53°19' E 004°29'2216.1
2016-Dec-04 12:10N 53°33' E 004°58'1318.2
2016-Dec-04 11:27N 53°38' E 005°19'2117.5
2016-Dec-04 10:15N 53°44' E 005°53'7218.0
2016-Dec-04 06:17N 54°02' E 007°50'1317.4
2016-Dec-04 05:33N 54°00' E 008°11'1515.2
2016-Dec-04 04:33N 53°58' E 008°37'1211.9
2016-Dec-04 03:34N 53°51' E 008°53'1111.1
2016-Dec-04 02:34N 53°53' E 009°12'1110.9
2016-Dec-04 01:34N 53°45' E 009°24'1211.6
2016-Dec-04 00:34N 53°36' E 009°36'1110.7
2016-Dec-03 23:33N 53°33' E 009°53'2 1.6
2016-Dec-03 22:33N 53°32' E 009°55'0 0.0
2016-Dec-03 21:33N 53°32' E 009°55'0 0.0
2016-Dec-03 20:33N 53°32' E 009°55'0 0.0
2016-Dec-03 19:33N 53°32' E 009°55'0 0.0
2016-Dec-03 18:33N 53°32' E 009°55'0 0.0
2016-Dec-03 17:33N 53°32' E 009°55'0 0.0
2016-Dec-03 16:33N 53°32' E 009°55'0 0.0
2016-Dec-03 15:33N 53°32' E 009°55'0 0.0
2016-Dec-03 14:30N 53°32' E 009°55'0 0.0
2016-Dec-03 13:30N 53°32' E 009°55'0 0.0
2016-Dec-03 12:33N 53°32' E 009°55'0 0.0
2016-Dec-03 11:33N 53°32' E 009°55'0 0.0
2016-Dec-03 10:33N 53°32' E 009°55'0 0.0
2016-Dec-03 09:33N 53°32' E 009°55'0 0.0
2016-Dec-03 08:30N 53°32' E 009°55'0 0.0
2016-Dec-03 07:33N 53°32' E 009°55'0 0.0
2016-Dec-03 06:30N 53°32' E 009°55'0 0.0
2016-Dec-03 05:30N 53°32' E 009°55'0 0.0
2016-Dec-03 04:33N 53°32' E 009°55'0 0.0
2016-Dec-03 03:33N 53°32' E 009°55'0 0.0
2016-Dec-03 02:33N 53°32' E 009°55'0 0.0
2016-Dec-03 01:33N 53°32' E 009°55'0 0.2
2016-Dec-03 00:33N 53°32' E 009°55'5 5.2
2016-Dec-02 23:33N 53°33' E 009°47'1111.0
2016-Dec-02 22:33N 53°39' E 009°31'1312.6
2016-Dec-02 21:33N 53°50' E 009°21'10 9.8
2016-Dec-02 20:33N 53°52' E 009°04'1212.4
2016-Dec-02 19:33N 53°52' E 008°43'1313.2
2016-Dec-02 18:33N 53°59' E 008°24'6112.0
2016-Dec-02 13:27N 53°47' E 006°42'1211.8
2016-Dec-02 12:27N 53°44' E 006°23'4012.2
2016-Dec-02 09:10N 53°33' E 005°18'912.8
2016-Dec-02 08:26N 53°29' E 005°03'1212.9
2016-Dec-02 07:30N 53°25' E 004°45'1212.6
2016-Dec-02 06:33N 53°14' E 004°36'1312.7
2016-Dec-02 05:33N 53°03' E 004°26'1312.9
2016-Dec-02 04:33N 52°52' E 004°16'1313.0
2016-Dec-02 03:33N 52°41' E 004°04'1312.6
2016-Dec-02 02:33N 52°30' E 003°55'1212.2
2016-Dec-02 01:33N 52°17' E 003°53'1212.0
2016-Dec-02 00:33N 52°06' E 003°55'9 9.1
2016-Dec-01 23:33N 51°59' E 004°05'1110.8
2016-Dec-01 22:33N 51°54' E 004°21'4 3.4
2016-Dec-01 21:31N 51°54' E 004°26'0 0.0
2016-Dec-01 20:28N 51°54' E 004°26'0 0.0
2016-Dec-01 19:31N 51°54' E 004°26'0 0.0
2016-Dec-01 18:32N 51°54' E 004°26'0 0.0
2016-Dec-01 17:32N 51°54' E 004°26'0 0.0
2016-Dec-01 16:31N 51°54' E 004°26'0 0.0
2016-Dec-01 15:31N 51°54' E 004°26'0 0.0
2016-Dec-01 14:32N 51°54' E 004°26'0 0.0
2016-Dec-01 13:31N 51°54' E 004°26'0 0.0
2016-Dec-01 12:31N 51°54' E 004°26'0 0.0
2016-Dec-01 10:28N 51°54' E 004°26'0 0.0
2016-Dec-01 09:31N 51°54' E 004°26'0 0.0
2016-Dec-01 08:31N 51°54' E 004°26'0 0.0
2016-Dec-01 07:31N 51°54' E 004°26'0 0.0
2016-Dec-01 06:31N 51°54' E 004°26'0 0.0
2016-Dec-01 05:31N 51°54' E 004°26'4 4.3
2016-Dec-01 04:33N 51°54' E 004°20'1212.5
2016-Dec-01 03:34N 51°60' E 004°02'1211.5
2016-Dec-01 02:33N 51°59' E 003°43'8 8.1
2016-Dec-01 01:33N 51°56' E 003°31'9 9.1
2016-Dec-01 00:32N 51°55' E 003°16'1515.3
2016-Nov-30 23:33N 51°50' E 002°53'1414.2
2016-Nov-30 22:33N 51°42' E 002°33'1413.9
2016-Nov-30 21:33N 51°32' E 002°18'1313.4
2016-Nov-30 20:33N 51°22' E 002°03'1313.0
2016-Nov-30 19:33N 51°13' E 001°49'1212.3
2016-Nov-30 18:33N 51°03' E 001°37'1212.3
2016-Nov-30 17:33N 50°53' E 001°26'2613.0
2016-Nov-30 15:32N 50°32' E 001°02'2013.5
2016-Nov-30 14:05N 50°25' E 000°33'713.1
2016-Nov-30 13:33N 50°23' E 000°22'1313.1
2016-Nov-30 12:33N 50°20' E 000°02'1413.4
2016-Nov-30 11:33N 50°17' W 000°18'1414.0
2016-Nov-30 10:33N 50°13' W 000°39'1615.8
2016-Nov-30 09:33N 50°09' W 001°03'1818.4
2016-Nov-30 08:34N 50°05' W 001°31'1918.9
2016-Nov-30 07:33N 50°00' W 001°59'2517.9
2016-Nov-30 06:08N 49°53' W 002°37'1016.9
2016-Nov-30 05:33N 49°50' W 002°52'1616.5
2016-Nov-30 04:33N 49°43' W 003°15'1616.0
2016-Nov-30 03:33N 49°36' W 003°37'1615.3
2016-Nov-30 02:33N 49°32' W 004°00'1414.0
2016-Nov-30 01:31N 49°32' W 004°22'1514.5
2016-Nov-30 00:28N 49°28' W 004°45'1414.0
2016-Nov-29 23:30N 49°24' W 005°05'1313.3
2016-Nov-29 22:33N 49°20' W 005°23'1111.1
2016-Nov-29 21:33N 49°17' W 005°40'1111.1
2016-Nov-29 20:33N 49°14' W 005°56'1616.3
2016-Nov-29 19:33N 49°10' W 006°20'1817.5
2016-Nov-29 18:34N 49°06' W 006°46'3617.9
2016-Nov-29 16:33N 48°59' W 007°40'  
Track history (hours):
 
Tides and Currents Weather Stations Pressure Air Temp Water Temp Dewpoint Dewpoint Depression Visibility Wind Speed Wind Dir Waves Ship Positions

CMA-CGM Fort Saint Pierre

Last reported at 2016-Dec-05 14:32 UTC. Time now 2016-Dec-05 14:37 UTC.
Position N 51°18' E 004°16'.

Length 197 m; beam 30 m.

Type: Ship (hazmat cat A). MMSI: 226328000.

Date/timePositionNaut miles runAvg speedWind from/ knotsBaromVisibWave heightAir tempDewpointWater temp
2016-Dec-05 14:32N 51°18' E 004°16'0 0.0
2016-Dec-05 13:32N 51°18' E 004°16'0 0.0
2016-Dec-05 12:29N 51°18' E 004°16'0 0.0
2016-Dec-05 11:32N 51°18' E 004°16'0 0.0
2016-Dec-05 10:32N 51°18' E 004°16'0 0.0
2016-Dec-05 09:26N 51°18' E 004°16'0 0.0
2016-Dec-05 08:26N 51°18' E 004°16'0 0.0
2016-Dec-05 07:32N 51°18' E 004°16'0 0.0
2016-Dec-05 06:32N 51°18' E 004°16'0 0.0
2016-Dec-05 05:32N 51°18' E 004°16'0 0.0
2016-Dec-05 04:32N 51°18' E 004°16'4 3.6
2016-Dec-05 03:33N 51°21' E 004°15'1010.4
2016-Dec-05 02:34N 51°26' E 004°00'1111.2
2016-Dec-05 01:34N 51°24' E 003°43'1111.2
2016-Dec-05 00:33N 51°24' E 003°25'1515.3
2016-Dec-04 23:33N 51°25' E 003°00'1716.7
2016-Dec-04 22:33N 51°40' E 003°12'9 8.5
2016-Dec-04 21:33N 51°48' E 003°15'8 7.8
2016-Dec-04 20:34N 51°56' E 003°18'9 9.1
2016-Dec-04 19:33N 52°05' E 003°21'1413.8
2016-Dec-04 18:32N 52°19' E 003°25'1313.7
2016-Dec-04 17:33N 52°32' E 003°28'1414.0
2016-Dec-04 16:33N 52°44' E 003°39'1614.9
2016-Dec-04 15:29N 52°56' E 003°57'1415.0
2016-Dec-04 14:33N 53°05' E 004°14'1716.7
2016-Dec-04 13:33N 53°19' E 004°29'2216.1
2016-Dec-04 12:10N 53°33' E 004°58'1318.2
2016-Dec-04 11:27N 53°38' E 005°19'2117.5
2016-Dec-04 10:15N 53°44' E 005°53'7218.0
2016-Dec-04 06:17N 54°02' E 007°50'1317.4
2016-Dec-04 05:33N 54°00' E 008°11'1515.2
2016-Dec-04 04:33N 53°58' E 008°37'1211.9
2016-Dec-04 03:34N 53°51' E 008°53'1111.1
2016-Dec-04 02:34N 53°53' E 009°12'1110.9
2016-Dec-04 01:34N 53°45' E 009°24'1211.6
2016-Dec-04 00:34N 53°36' E 009°36'1110.7
2016-Dec-03 23:33N 53°33' E 009°53'2 1.6
2016-Dec-03 22:33N 53°32' E 009°55'0 0.0
2016-Dec-03 21:33N 53°32' E 009°55'0 0.0
2016-Dec-03 20:33N 53°32' E 009°55'0 0.0
2016-Dec-03 19:33N 53°32' E 009°55'0 0.0
2016-Dec-03 18:33N 53°32' E 009°55'0 0.0
2016-Dec-03 17:33N 53°32' E 009°55'0 0.0
2016-Dec-03 16:33N 53°32' E 009°55'0 0.0
2016-Dec-03 15:33N 53°32' E 009°55'0 0.0
2016-Dec-03 14:30N 53°32' E 009°55'0 0.0
2016-Dec-03 13:30N 53°32' E 009°55'0 0.0
2016-Dec-03 12:33N 53°32' E 009°55'0 0.0
2016-Dec-03 11:33N 53°32' E 009°55'0 0.0
2016-Dec-03 10:33N 53°32' E 009°55'0 0.0
2016-Dec-03 09:33N 53°32' E 009°55'0 0.0
2016-Dec-03 08:30N 53°32' E 009°55'0 0.0
2016-Dec-03 07:33N 53°32' E 009°55'0 0.0
2016-Dec-03 06:30N 53°32' E 009°55'0 0.0
2016-Dec-03 05:30N 53°32' E 009°55'0 0.0
2016-Dec-03 04:33N 53°32' E 009°55'0 0.0
2016-Dec-03 03:33N 53°32' E 009°55'0 0.0
2016-Dec-03 02:33N 53°32' E 009°55'0 0.0
2016-Dec-03 01:33N 53°32' E 009°55'0 0.2
2016-Dec-03 00:33N 53°32' E 009°55'5 5.2
2016-Dec-02 23:33N 53°33' E 009°47'1111.0
2016-Dec-02 22:33N 53°39' E 009°31'1312.6
2016-Dec-02 21:33N 53°50' E 009°21'10 9.8
2016-Dec-02 20:33N 53°52' E 009°04'1212.4
2016-Dec-02 19:33N 53°52' E 008°43'1313.2
2016-Dec-02 18:33N 53°59' E 008°24'6112.0
2016-Dec-02 13:27N 53°47' E 006°42'1211.8
2016-Dec-02 12:27N 53°44' E 006°23'4012.2
2016-Dec-02 09:10N 53°33' E 005°18'912.8
2016-Dec-02 08:26N 53°29' E 005°03'1212.9
2016-Dec-02 07:30N 53°25' E 004°45'1212.6
2016-Dec-02 06:33N 53°14' E 004°36'1312.7
2016-Dec-02 05:33N 53°03' E 004°26'1312.9
2016-Dec-02 04:33N 52°52' E 004°16'1313.0
2016-Dec-02 03:33N 52°41' E 004°04'1312.6
2016-Dec-02 02:33N 52°30' E 003°55'1212.2
2016-Dec-02 01:33N 52°17' E 003°53'1212.0
2016-Dec-02 00:33N 52°06' E 003°55'9 9.1
2016-Dec-01 23:33N 51°59' E 004°05'1110.8
2016-Dec-01 22:33N 51°54' E 004°21'4 3.4
2016-Dec-01 21:31N 51°54' E 004°26'0 0.0
2016-Dec-01 20:28N 51°54' E 004°26'0 0.0
2016-Dec-01 19:31N 51°54' E 004°26'0 0.0
2016-Dec-01 18:32N 51°54' E 004°26'0 0.0
2016-Dec-01 17:32N 51°54' E 004°26'0 0.0
2016-Dec-01 16:31N 51°54' E 004°26'0 0.0
2016-Dec-01 15:31N 51°54' E 004°26'0 0.0
2016-Dec-01 14:32N 51°54' E 004°26'0 0.0
2016-Dec-01 13:31N 51°54' E 004°26'0 0.0
2016-Dec-01 12:31N 51°54' E 004°26'0 0.0
2016-Dec-01 10:28N 51°54' E 004°26'0 0.0
2016-Dec-01 09:31N 51°54' E 004°26'0 0.0
2016-Dec-01 08:31N 51°54' E 004°26'0 0.0
2016-Dec-01 07:31N 51°54' E 004°26'0 0.0
2016-Dec-01 06:31N 51°54' E 004°26'0 0.0
2016-Dec-01 05:31N 51°54' E 004°26'4 4.3
2016-Dec-01 04:33N 51°54' E 004°20'1212.5
2016-Dec-01 03:34N 51°60' E 004°02'1211.5
2016-Dec-01 02:33N 51°59' E 003°43'8 8.1
2016-Dec-01 01:33N 51°56' E 003°31'9 9.1
2016-Dec-01 00:32N 51°55' E 003°16'1515.3
2016-Nov-30 23:33N 51°50' E 002°53'1414.2
2016-Nov-30 22:33N 51°42' E 002°33'1413.9
2016-Nov-30 21:33N 51°32' E 002°18'1313.4
2016-Nov-30 20:33N 51°22' E 002°03'1313.0
2016-Nov-30 19:33N 51°13' E 001°49'1212.3
2016-Nov-30 18:33N 51°03' E 001°37'1212.3
2016-Nov-30 17:33N 50°53' E 001°26'2613.0
2016-Nov-30 15:32N 50°32' E 001°02'2013.5
2016-Nov-30 14:05N 50°25' E 000°33'713.1
2016-Nov-30 13:33N 50°23' E 000°22'1313.1
2016-Nov-30 12:33N 50°20' E 000°02'1413.4
2016-Nov-30 11:33N 50°17' W 000°18'1414.0
2016-Nov-30 10:33N 50°13' W 000°39'1615.8
2016-Nov-30 09:33N 50°09' W 001°03'1818.4
2016-Nov-30 08:34N 50°05' W 001°31'1918.9
2016-Nov-30 07:33N 50°00' W 001°59'2517.9
2016-Nov-30 06:08N 49°53' W 002°37'1016.9
2016-Nov-30 05:33N 49°50' W 002°52'1616.5
2016-Nov-30 04:33N 49°43' W 003°15'1616.0
2016-Nov-30 03:33N 49°36' W 003°37'1615.3
2016-Nov-30 02:33N 49°32' W 004°00'1414.0
2016-Nov-30 01:31N 49°32' W 004°22'1514.5
2016-Nov-30 00:28N 49°28' W 004°45'1414.0
2016-Nov-29 23:30N 49°24' W 005°05'1313.3
2016-Nov-29 22:33N 49°20' W 005°23'1111.1
2016-Nov-29 21:33N 49°17' W 005°40'1111.1
2016-Nov-29 20:33N 49°14' W 005°56'1616.3
2016-Nov-29 19:33N 49°10' W 006°20'1817.5
2016-Nov-29 18:34N 49°06' W 006°46'3617.9
2016-Nov-29 16:33N 48°59' W 007°40'  

Dump ship's entire track history